sensor_id;sensor_type;location;lat;lon;timestamp;P1;durP1;ratioP1;P2;durP2;ratioP2
25359;SDS011;13311;51.386;0.016;2023-03-01T00:00:25;16.88;;;10.32;;
25359;SDS011;13311;51.386;0.016;2023-03-01T00:05:26;14.50;;;11.93;;
25359;SDS011;13311;51.386;0.016;2023-03-01T00:10:27;14.02;;;10.07;;
25359;SDS011;13311;51.386;0.016;2023-03-01T00:15:27;15.82;;;10.95;;
25359;SDS011;13311;51.386;0.016;2023-03-01T00:20:28;13.18;;;10.85;;
25359;SDS011;13311;51.386;0.016;2023-03-01T00:25:29;13.55;;;10.75;;
25359;SDS011;13311;51.386;0.016;2023-03-01T00:30:29;14.48;;;11.35;;
25359;SDS011;13311;51.386;0.016;2023-03-01T00:35:31;15.68;;;11.98;;
25359;SDS011;13311;51.386;0.016;2023-03-01T00:40:33;16.48;;;11.32;;
25359;SDS011;13311;51.386;0.016;2023-03-01T00:45:35;15.48;;;11.32;;
25359;SDS011;13311;51.386;0.016;2023-03-01T00:50:36;13.82;;;11.32;;
25359;SDS011;13311;51.386;0.016;2023-03-01T00:55:37;15.43;;;11.35;;
25359;SDS011;13311;51.386;0.016;2023-03-01T01:00:37;17.67;;;12.73;;
25359;SDS011;13311;51.386;0.016;2023-03-01T01:05:38;17.38;;;11.30;;
25359;SDS011;13311;51.386;0.016;2023-03-01T01:10:39;15.93;;;11.68;;
25359;SDS011;13311;51.386;0.016;2023-03-01T01:15:40;15.73;;;12.32;;
25359;SDS011;13311;51.386;0.016;2023-03-01T01:20:41;15.98;;;11.63;;
25359;SDS011;13311;51.386;0.016;2023-03-01T01:25:42;15.85;;;11.52;;
25359;SDS011;13311;51.386;0.016;2023-03-01T01:30:42;16.55;;;12.45;;
25359;SDS011;13311;51.386;0.016;2023-03-01T01:35:44;16.45;;;11.10;;
25359;SDS011;13311;51.386;0.016;2023-03-01T01:40:46;15.52;;;12.15;;
25359;SDS011;13311;51.386;0.016;2023-03-01T01:45:48;12.70;;;10.85;;
25359;SDS011;13311;51.386;0.016;2023-03-01T01:50:51;14.63;;;11.60;;
25359;SDS011;13311;51.386;0.016;2023-03-01T01:55:58;15.63;;;11.90;;
25359;SDS011;13311;51.386;0.016;2023-03-01T02:01:01;15.77;;;12.30;;
25359;SDS011;13311;51.386;0.016;2023-03-01T02:06:07;17.25;;;12.18;;
25359;SDS011;13311;51.386;0.016;2023-03-01T02:16:33;16.98;;;11.95;;
25359;SDS011;13311;51.386;0.016;2023-03-01T02:21:50;17.10;;;12.82;;
25359;SDS011;13311;51.386;0.016;2023-03-01T02:26:57;16.65;;;12.38;;
25359;SDS011;13311;51.386;0.016;2023-03-01T02:31:59;17.30;;;11.50;;
25359;SDS011;13311;51.386;0.016;2023-03-01T02:37:04;19.40;;;13.05;;
25359;SDS011;13311;51.386;0.016;2023-03-01T02:42:14;18.75;;;12.38;;
25359;SDS011;13311;51.386;0.016;2023-03-01T02:47:21;15.15;;;10.90;;
25359;SDS011;13311;51.386;0.016;2023-03-01T02:52:30;13.57;;;8.27;;
25359;SDS011;13311;51.386;0.016;2023-03-01T02:57:45;13.68;;;8.75;;
25359;SDS011;13311;51.386;0.016;2023-03-01T03:02:52;14.02;;;8.07;;
25359;SDS011;13311;51.386;0.016;2023-03-01T03:07:57;10.10;;;5.43;;
25359;SDS011;13311;51.386;0.016;2023-03-01T03:13:04;7.60;;;5.10;;
25359;SDS011;13311;51.386;0.016;2023-03-01T03:18:12;8.77;;;4.97;;
25359;SDS011;13311;51.386;0.016;2023-03-01T03:23:15;8.18;;;5.00;;
25359;SDS011;13311;51.386;0.016;2023-03-01T03:28:16;9.57;;;4.38;;
25359;SDS011;13311;51.386;0.016;2023-03-01T03:33:17;7.03;;;4.22;;
25359;SDS011;13311;51.386;0.016;2023-03-01T03:38:18;9.30;;;4.38;;
25359;SDS011;13311;51.386;0.016;2023-03-01T03:43:22;8.93;;;4.18;;
25359;SDS011;13311;51.386;0.016;2023-03-01T03:48:23;8.63;;;4.07;;
25359;SDS011;13311;51.386;0.016;2023-03-01T03:53:25;9.18;;;4.68;;
25359;SDS011;13311;51.386;0.016;2023-03-01T03:58:28;6.75;;;3.65;;
25359;SDS011;13311;51.386;0.016;2023-03-01T04:03:30;5.70;;;3.40;;
25359;SDS011;13311;51.386;0.016;2023-03-01T04:08:32;3.80;;;2.72;;
25359;SDS011;13311;51.386;0.016;2023-03-01T04:13:33;5.60;;;3.03;;
25359;SDS011;13311;51.386;0.016;2023-03-01T04:18:33;8.77;;;3.40;;
25359;SDS011;13311;51.386;0.016;2023-03-01T04:23:34;4.10;;;2.75;;
25359;SDS011;13311;51.386;0.016;2023-03-01T04:28:38;7.53;;;3.05;;
25359;SDS011;13311;51.386;0.016;2023-03-01T04:33:44;5.70;;;2.47;;
25359;SDS011;13311;51.386;0.016;2023-03-01T04:38:51;5.55;;;2.83;;
25359;SDS011;13311;51.386;0.016;2023-03-01T04:43:52;5.45;;;2.88;;
25359;SDS011;13311;51.386;0.016;2023-03-01T04:48:53;5.70;;;3.10;;
25359;SDS011;13311;51.386;0.016;2023-03-01T04:53:53;8.10;;;2.72;;
25359;SDS011;13311;51.386;0.016;2023-03-01T04:58:54;3.95;;;3.03;;
25359;SDS011;13311;51.386;0.016;2023-03-01T05:03:55;4.95;;;3.00;;
25359;SDS011;13311;51.386;0.016;2023-03-01T05:08:56;6.38;;;3.17;;
25359;SDS011;13311;51.386;0.016;2023-03-01T05:13:56;5.78;;;2.83;;
25359;SDS011;13311;51.386;0.016;2023-03-01T05:18:57;4.13;;;2.40;;
25359;SDS011;13311;51.386;0.016;2023-03-01T05:23:59;4.25;;;2.97;;
25359;SDS011;13311;51.386;0.016;2023-03-01T05:28:59;4.30;;;2.38;;
25359;SDS011;13311;51.386;0.016;2023-03-01T05:34:00;5.05;;;2.50;;
25359;SDS011;13311;51.386;0.016;2023-03-01T05:39:02;6.28;;;2.70;;
25359;SDS011;13311;51.386;0.016;2023-03-01T05:44:03;4.30;;;2.55;;
25359;SDS011;13311;51.386;0.016;2023-03-01T05:49:06;3.70;;;2.13;;
25359;SDS011;13311;51.386;0.016;2023-03-01T05:54:07;3.53;;;2.35;;
25359;SDS011;13311;51.386;0.016;2023-03-01T05:59:11;7.60;;;2.72;;
25359;SDS011;13311;51.386;0.016;2023-03-01T06:04:12;3.72;;;2.45;;
25359;SDS011;13311;51.386;0.016;2023-03-01T06:09:12;4.40;;;2.83;;
25359;SDS011;13311;51.386;0.016;2023-03-01T06:14:14;2.90;;;2.28;;
25359;SDS011;13311;51.386;0.016;2023-03-01T06:19:15;3.58;;;2.40;;
25359;SDS011;13311;51.386;0.016;2023-03-01T06:24:15;3.90;;;2.70;;
25359;SDS011;13311;51.386;0.016;2023-03-01T06:29:16;4.93;;;2.58;;
25359;SDS011;13311;51.386;0.016;2023-03-01T06:34:17;3.70;;;2.53;;
25359;SDS011;13311;51.386;0.016;2023-03-01T06:39:17;4.55;;;2.50;;
25359;SDS011;13311;51.386;0.016;2023-03-01T06:44:18;4.82;;;2.88;;
25359;SDS011;13311;51.386;0.016;2023-03-01T06:49:19;3.85;;;2.53;;
25359;SDS011;13311;51.386;0.016;2023-03-01T06:54:19;4.57;;;3.42;;
25359;SDS011;13311;51.386;0.016;2023-03-01T06:59:22;7.35;;;3.90;;
25359;SDS011;13311;51.386;0.016;2023-03-01T07:04:22;6.95;;;3.90;;
25359;SDS011;13311;51.386;0.016;2023-03-01T07:09:23;8.43;;;5.00;;
25359;SDS011;13311;51.386;0.016;2023-03-01T07:14:24;8.68;;;3.85;;
25359;SDS011;13311;51.386;0.016;2023-03-01T07:19:25;6.80;;;3.88;;
25359;SDS011;13311;51.386;0.016;2023-03-01T07:24:26;6.88;;;3.28;;
25359;SDS011;13311;51.386;0.016;2023-03-01T07:29:27;7.50;;;3.20;;
25359;SDS011;13311;51.386;0.016;2023-03-01T07:34:28;5.53;;;2.50;;
25359;SDS011;13311;51.386;0.016;2023-03-01T07:39:29;4.28;;;2.35;;
25359;SDS011;13311;51.386;0.016;2023-03-01T07:44:30;4.63;;;2.40;;
25359;SDS011;13311;51.386;0.016;2023-03-01T07:49:31;11.40;;;3.50;;
25359;SDS011;13311;51.386;0.016;2023-03-01T07:54:31;6.10;;;3.10;;
25359;SDS011;13311;51.386;0.016;2023-03-01T07:59:32;4.63;;;2.95;;
25359;SDS011;13311;51.386;0.016;2023-03-01T08:04:33;4.55;;;2.90;;
25359;SDS011;13311;51.386;0.016;2023-03-01T08:09:34;5.82;;;2.97;;
25359;SDS011;13311;51.386;0.016;2023-03-01T08:14:37;4.85;;;2.65;;
25359;SDS011;13311;51.386;0.016;2023-03-01T08:19:37;5.38;;;3.30;;
25359;SDS011;13311;51.386;0.016;2023-03-01T08:24:38;4.07;;;2.75;;
25359;SDS011;13311;51.386;0.016;2023-03-01T08:29:39;5.97;;;2.40;;
25359;SDS011;13311;51.386;0.016;2023-03-01T08:34:39;5.35;;;2.35;;
25359;SDS011;13311;51.386;0.016;2023-03-01T08:39:41;7.20;;;2.55;;
25359;SDS011;13311;51.386;0.016;2023-03-01T08:44:41;4.85;;;2.60;;
25359;SDS011;13311;51.386;0.016;2023-03-01T08:49:42;4.65;;;2.28;;
25359;SDS011;13311;51.386;0.016;2023-03-01T08:54:43;3.03;;;1.98;;
25359;SDS011;13311;51.386;0.016;2023-03-01T08:59:44;6.38;;;2.30;;
25359;SDS011;13311;51.386;0.016;2023-03-01T09:04:44;4.93;;;2.13;;
25359;SDS011;13311;51.386;0.016;2023-03-01T09:09:45;7.07;;;2.40;;
25359;SDS011;13311;51.386;0.016;2023-03-01T09:14:46;4.55;;;1.60;;
25359;SDS011;13311;51.386;0.016;2023-03-01T09:19:47;3.90;;;1.60;;
25359;SDS011;13311;51.386;0.016;2023-03-01T09:24:48;5.47;;;2.00;;
25359;SDS011;13311;51.386;0.016;2023-03-01T09:29:49;5.45;;;2.05;;
25359;SDS011;13311;51.386;0.016;2023-03-01T09:34:49;5.00;;;2.25;;
25359;SDS011;13311;51.386;0.016;2023-03-01T09:40:05;5.13;;;2.00;;
25359;SDS011;13311;51.386;0.016;2023-03-01T09:45:50;8.77;;;2.05;;
25359;SDS011;13311;51.386;0.016;2023-03-01T09:50:45;2.88;;;1.83;;
25359;SDS011;13311;51.386;0.016;2023-03-01T09:55:54;3.33;;;1.90;;
25359;SDS011;13311;51.386;0.016;2023-03-01T10:06:34;4.05;;;2.05;;
25359;SDS011;13311;51.386;0.016;2023-03-01T10:11:36;4.82;;;2.40;;
25359;SDS011;13311;51.386;0.016;2023-03-01T10:16:52;4.80;;;2.03;;
25359;SDS011;13311;51.386;0.016;2023-03-01T10:32:53;7.03;;;1.95;;
25359;SDS011;13311;51.386;0.016;2023-03-01T10:37:58;3.70;;;1.52;;
25359;SDS011;13311;51.386;0.016;2023-03-01T10:43:04;2.60;;;1.02;;
25359;SDS011;13311;51.386;0.016;2023-03-01T10:53:20;3.15;;;0.82;;
25359;SDS011;13311;51.386;0.016;2023-03-01T10:58:30;1.45;;;0.90;;
25359;SDS011;13311;51.386;0.016;2023-03-01T11:03:34;1.63;;;0.93;;
25359;SDS011;13311;51.386;0.016;2023-03-01T11:08:44;3.30;;;1.08;;
25359;SDS011;13311;51.386;0.016;2023-03-01T11:13:51;5.45;;;1.75;;
25359;SDS011;13311;51.386;0.016;2023-03-01T11:18:56;2.33;;;0.65;;
25359;SDS011;13311;51.386;0.016;2023-03-01T11:24:00;8.20;;;0.82;;
25359;SDS011;13311;51.386;0.016;2023-03-01T11:29:03;2.13;;;1.08;;
25359;SDS011;13311;51.386;0.016;2023-03-01T11:34:13;3.63;;;1.40;;
25359;SDS011;13311;51.386;0.016;2023-03-01T11:39:31;4.28;;;1.10;;
25359;SDS011;13311;51.386;0.016;2023-03-01T11:45:11;2.17;;;0.95;;
25359;SDS011;13311;51.386;0.016;2023-03-01T11:50:14;2.47;;;1.10;;
25359;SDS011;13311;51.386;0.016;2023-03-01T12:23:26;4.07;;;1.23;;
25359;SDS011;13311;51.386;0.016;2023-03-01T12:29:22;5.55;;;1.38;;
25359;SDS011;13311;51.386;0.016;2023-03-01T12:46:09;4.00;;;1.80;;
25359;SDS011;13311;51.386;0.016;2023-03-01T12:51:20;4.93;;;1.90;;
25359;SDS011;13311;51.386;0.016;2023-03-01T12:56:30;2.30;;;1.50;;
25359;SDS011;13311;51.386;0.016;2023-03-01T13:01:56;2.10;;;1.05;;
25359;SDS011;13311;51.386;0.016;2023-03-01T13:07:30;3.10;;;1.30;;
25359;SDS011;13311;51.386;0.016;2023-03-01T13:12:52;2.73;;;1.37;;
25359;SDS011;13311;51.386;0.016;2023-03-01T13:18:48;3.50;;;1.30;;
25359;SDS011;13311;51.386;0.016;2023-03-01T13:23:26;2.53;;;1.23;;
25359;SDS011;13311;51.386;0.016;2023-03-01T13:38:56;1.70;;;1.40;;
25359;SDS011;13311;51.386;0.016;2023-03-01T13:43:58;5.22;;;1.30;;
25359;SDS011;13311;51.386;0.016;2023-03-01T13:48:59;7.07;;;1.50;;
25359;SDS011;13311;51.386;0.016;2023-03-01T13:54:00;3.88;;;1.70;;
25359;SDS011;13311;51.386;0.016;2023-03-01T13:59:02;2.95;;;1.10;;
25359;SDS011;13311;51.386;0.016;2023-03-01T14:09:37;5.47;;;1.90;;
25359;SDS011;13311;51.386;0.016;2023-03-01T14:20:02;3.85;;;1.50;;
25359;SDS011;13311;51.386;0.016;2023-03-01T14:25:33;10.50;;;2.25;;
25359;SDS011;13311;51.386;0.016;2023-03-01T14:30:41;8.07;;;1.80;;
25359;SDS011;13311;51.386;0.016;2023-03-01T14:35:52;3.80;;;1.42;;
25359;SDS011;13311;51.386;0.016;2023-03-01T14:41:01;2.92;;;1.38;;
25359;SDS011;13311;51.386;0.016;2023-03-01T14:46:37;2.90;;;1.77;;
25359;SDS011;13311;51.386;0.016;2023-03-01T14:51:41;3.97;;;1.50;;
25359;SDS011;13311;51.386;0.016;2023-03-01T14:56:57;3.00;;;1.50;;
25359;SDS011;13311;51.386;0.016;2023-03-01T15:02:00;10.55;;;2.10;;
25359;SDS011;13311;51.386;0.016;2023-03-01T15:07:01;5.18;;;2.28;;
25359;SDS011;13311;51.386;0.016;2023-03-01T15:22:32;5.70;;;1.58;;
25359;SDS011;13311;51.386;0.016;2023-03-01T15:27:33;6.00;;;1.98;;
25359;SDS011;13311;51.386;0.016;2023-03-01T15:32:35;7.85;;;1.73;;
25359;SDS011;13311;51.386;0.016;2023-03-01T15:37:48;10.52;;;2.88;;
25359;SDS011;13311;51.386;0.016;2023-03-01T15:42:49;8.50;;;1.83;;
25359;SDS011;13311;51.386;0.016;2023-03-01T15:47:53;5.00;;;1.67;;
25359;SDS011;13311;51.386;0.016;2023-03-01T15:53:09;10.23;;;2.25;;
25359;SDS011;13311;51.386;0.016;2023-03-01T15:58:18;7.22;;;2.95;;
25359;SDS011;13311;51.386;0.016;2023-03-01T16:03:25;6.00;;;1.75;;
25359;SDS011;13311;51.386;0.016;2023-03-01T16:08:26;3.65;;;2.03;;
25359;SDS011;13311;51.386;0.016;2023-03-01T16:13:27;4.53;;;1.92;;
25359;SDS011;13311;51.386;0.016;2023-03-01T16:18:28;6.65;;;2.78;;
25359;SDS011;13311;51.386;0.016;2023-03-01T16:23:29;8.25;;;4.07;;
25359;SDS011;13311;51.386;0.016;2023-03-01T16:28:30;6.78;;;2.22;;
25359;SDS011;13311;51.386;0.016;2023-03-01T16:33:30;8.80;;;2.55;;
25359;SDS011;13311;51.386;0.016;2023-03-01T16:38:32;5.38;;;2.22;;
25359;SDS011;13311;51.386;0.016;2023-03-01T16:43:33;4.13;;;2.13;;
25359;SDS011;13311;51.386;0.016;2023-03-01T16:48:33;6.55;;;2.10;;
25359;SDS011;13311;51.386;0.016;2023-03-01T16:53:34;7.30;;;2.38;;
25359;SDS011;13311;51.386;0.016;2023-03-01T16:58:37;6.75;;;2.20;;
25359;SDS011;13311;51.386;0.016;2023-03-01T17:03:39;10.95;;;1.63;;
25359;SDS011;13311;51.386;0.016;2023-03-01T17:08:40;3.28;;;1.80;;
25359;SDS011;13311;51.386;0.016;2023-03-01T17:13:41;4.18;;;1.77;;
25359;SDS011;13311;51.386;0.016;2023-03-01T17:18:43;3.42;;;1.45;;
25359;SDS011;13311;51.386;0.016;2023-03-01T17:23:44;4.15;;;1.70;;
25359;SDS011;13311;51.386;0.016;2023-03-01T17:28:46;5.68;;;1.88;;
25359;SDS011;13311;51.386;0.016;2023-03-01T17:33:51;4.95;;;1.67;;
25359;SDS011;13311;51.386;0.016;2023-03-01T17:38:51;4.90;;;1.80;;
25359;SDS011;13311;51.386;0.016;2023-03-01T17:43:52;6.47;;;1.90;;
25359;SDS011;13311;51.386;0.016;2023-03-01T17:48:53;4.70;;;1.88;;
25359;SDS011;13311;51.386;0.016;2023-03-01T17:53:54;3.30;;;1.67;;
25359;SDS011;13311;51.386;0.016;2023-03-01T17:58:54;7.53;;;2.38;;
25359;SDS011;13311;51.386;0.016;2023-03-01T18:03:55;6.20;;;1.80;;
25359;SDS011;13311;51.386;0.016;2023-03-01T18:08:56;3.10;;;2.00;;
25359;SDS011;13311;51.386;0.016;2023-03-01T18:13:57;6.22;;;2.70;;
25359;SDS011;13311;51.386;0.016;2023-03-01T18:18:58;4.90;;;2.72;;
25359;SDS011;13311;51.386;0.016;2023-03-01T18:24:00;8.27;;;2.42;;
25359;SDS011;13311;51.386;0.016;2023-03-01T18:29:00;8.95;;;2.90;;
25359;SDS011;13311;51.386;0.016;2023-03-01T18:34:03;5.03;;;2.50;;
25359;SDS011;13311;51.386;0.016;2023-03-01T18:39:04;4.45;;;2.33;;
25359;SDS011;13311;51.386;0.016;2023-03-01T18:44:06;8.18;;;3.03;;
25359;SDS011;13311;51.386;0.016;2023-03-01T18:49:09;3.80;;;2.20;;
25359;SDS011;13311;51.386;0.016;2023-03-01T18:54:11;6.15;;;2.90;;
25359;SDS011;13311;51.386;0.016;2023-03-01T18:59:12;6.85;;;3.13;;
25359;SDS011;13311;51.386;0.016;2023-03-01T19:04:12;4.85;;;2.28;;
25359;SDS011;13311;51.386;0.016;2023-03-01T19:09:14;4.80;;;2.05;;
25359;SDS011;13311;51.386;0.016;2023-03-01T19:14:14;4.28;;;2.10;;
25359;SDS011;13311;51.386;0.016;2023-03-01T19:19:15;3.20;;;1.83;;
25359;SDS011;13311;51.386;0.016;2023-03-01T19:24:17;2.15;;;1.50;;
25359;SDS011;13311;51.386;0.016;2023-03-01T19:29:18;6.20;;;2.00;;
25359;SDS011;13311;51.386;0.016;2023-03-01T19:34:19;3.95;;;1.40;;
25359;SDS011;13311;51.386;0.016;2023-03-01T19:39:21;1.80;;;1.27;;
25359;SDS011;13311;51.386;0.016;2023-03-01T19:44:22;4.57;;;1.85;;
25359;SDS011;13311;51.386;0.016;2023-03-01T19:49:24;2.17;;;1.20;;
25359;SDS011;13311;51.386;0.016;2023-03-01T19:54:29;3.03;;;1.67;;
25359;SDS011;13311;51.386;0.016;2023-03-01T19:59:30;3.65;;;1.77;;
25359;SDS011;13311;51.386;0.016;2023-03-01T20:04:30;6.30;;;1.70;;
25359;SDS011;13311;51.386;0.016;2023-03-01T20:09:31;3.78;;;1.92;;
25359;SDS011;13311;51.386;0.016;2023-03-01T20:14:32;3.85;;;2.28;;
25359;SDS011;13311;51.386;0.016;2023-03-01T20:19:32;5.15;;;1.88;;
25359;SDS011;13311;51.386;0.016;2023-03-01T20:24:33;6.38;;;1.92;;
25359;SDS011;13311;51.386;0.016;2023-03-01T20:29:34;4.68;;;1.48;;
25359;SDS011;13311;51.386;0.016;2023-03-01T20:34:35;5.90;;;1.80;;
25359;SDS011;13311;51.386;0.016;2023-03-01T20:39:36;2.40;;;1.52;;
25359;SDS011;13311;51.386;0.016;2023-03-01T20:44:39;5.28;;;1.50;;
25359;SDS011;13311;51.386;0.016;2023-03-01T20:49:43;2.33;;;1.15;;
25359;SDS011;13311;51.386;0.016;2023-03-01T20:54:43;4.68;;;1.67;;
25359;SDS011;13311;51.386;0.016;2023-03-01T20:59:44;2.50;;;1.65;;
25359;SDS011;13311;51.386;0.016;2023-03-01T21:04:45;2.88;;;1.77;;
25359;SDS011;13311;51.386;0.016;2023-03-01T21:09:46;3.45;;;1.77;;
25359;SDS011;13311;51.386;0.016;2023-03-01T21:14:46;3.05;;;1.75;;
25359;SDS011;13311;51.386;0.016;2023-03-01T21:19:47;4.30;;;2.03;;
25359;SDS011;13311;51.386;0.016;2023-03-01T21:24:49;2.20;;;1.58;;
25359;SDS011;13311;51.386;0.016;2023-03-01T21:29:51;2.90;;;1.80;;
25359;SDS011;13311;51.386;0.016;2023-03-01T21:34:52;3.92;;;2.00;;
25359;SDS011;13311;51.386;0.016;2023-03-01T21:39:52;4.07;;;2.17;;
25359;SDS011;13311;51.386;0.016;2023-03-01T21:44:53;4.40;;;2.40;;
25359;SDS011;13311;51.386;0.016;2023-03-01T21:49:54;4.55;;;2.55;;
25359;SDS011;13311;51.386;0.016;2023-03-01T21:54:55;3.97;;;2.83;;
25359;SDS011;13311;51.386;0.016;2023-03-01T22:00:00;4.90;;;2.70;;
25359;SDS011;13311;51.386;0.016;2023-03-01T22:05:01;2.83;;;2.33;;
25359;SDS011;13311;51.386;0.016;2023-03-01T22:10:02;5.10;;;2.30;;
25359;SDS011;13311;51.386;0.016;2023-03-01T22:15:03;2.70;;;1.95;;
25359;SDS011;13311;51.386;0.016;2023-03-01T22:20:05;2.05;;;1.83;;
25359;SDS011;13311;51.386;0.016;2023-03-01T22:25:07;5.30;;;2.25;;
25359;SDS011;13311;51.386;0.016;2023-03-01T22:30:10;4.53;;;1.90;;
25359;SDS011;13311;51.386;0.016;2023-03-01T22:35:12;3.35;;;1.95;;
25359;SDS011;13311;51.386;0.016;2023-03-01T22:40:13;6.85;;;2.90;;
25359;SDS011;13311;51.386;0.016;2023-03-01T22:45:14;2.80;;;1.92;;
25359;SDS011;13311;51.386;0.016;2023-03-01T22:50:15;3.92;;;2.10;;
25359;SDS011;13311;51.386;0.016;2023-03-01T22:55:16;3.30;;;2.03;;
25359;SDS011;13311;51.386;0.016;2023-03-01T23:00:17;2.30;;;1.92;;
25359;SDS011;13311;51.386;0.016;2023-03-01T23:05:18;3.10;;;2.30;;
25359;SDS011;13311;51.386;0.016;2023-03-01T23:10:19;3.08;;;1.83;;
25359;SDS011;13311;51.386;0.016;2023-03-01T23:15:20;3.65;;;1.95;;
25359;SDS011;13311;51.386;0.016;2023-03-01T23:20:20;4.57;;;2.38;;
25359;SDS011;13311;51.386;0.016;2023-03-01T23:25:21;5.07;;;2.55;;
25359;SDS011;13311;51.386;0.016;2023-03-01T23:30:22;8.15;;;2.65;;
25359;SDS011;13311;51.386;0.016;2023-03-01T23:35:22;5.78;;;3.47;;
25359;SDS011;13311;51.386;0.016;2023-03-01T23:40:23;7.82;;;3.55;;
25359;SDS011;13311;51.386;0.016;2023-03-01T23:45:24;4.88;;;2.78;;
25359;SDS011;13311;51.386;0.016;2023-03-01T23:50:25;6.22;;;2.67;;
25359;SDS011;13311;51.386;0.016;2023-03-01T23:55:25;3.85;;;2.63;;
